Time;durP1;ratioP1;P1;durP2;ratioP2;P2;SDS_P1;SDS_P2;PMS_P1;PMS_P2;Temp;Humidity;BMP_temperature;BMP_pressure;BME280_temperature;BME280_humidity;BME280_pressure;Samples;Min_cycle;Max_cycle;Signal;HPM_P1;HPM_P2
2022/06/19 00:00:17;;;;;;;3.75;2.97;;;24.40;99.90;;;;;;2078520;28;20503;-71
2022/06/19 00:01:18;;;;;;;7.55;3.40;;;24.40;99.90;;;;;;2078999;28;20029;-71
2022/06/19 00:02:21;;;;;;;6.70;3.90;;;24.40;99.90;;;;;;2079516;28;20029;-72
2022/06/19 00:03:31;;;;;;;9.57;3.55;;;24.40;99.90;;;;;;2079234;28;20029;-71
2022/06/19 00:04:33;;;;;;;8.02;3.38;;;24.40;99.90;;;;;;2079294;28;20048;-71
2022/06/19 00:05:33;;;;;;;5.32;3.47;;;24.40;99.90;;;;;;2080241;28;20026;-71
2022/06/19 00:06:36;;;;;;;4.68;3.50;;;24.30;99.90;;;;;;2081107;28;20025;-71
2022/06/19 00:07:37;;;;;;;4.97;3.53;;;24.30;99.90;;;;;;2077958;28;20530;-71
2022/06/19 00:08:38;;;;;;;14.35;3.78;;;24.30;99.90;;;;;;2080703;28;20030;-71
2022/06/19 00:09:39;;;;;;;5.78;3.35;;;24.30;99.90;;;;;;2079656;28;20024;-71
2022/06/19 00:10:39;;;;;;;6.80;3.08;;;24.30;99.90;;;;;;2078980;28;20499;-71
2022/06/19 00:11:40;;;;;;;6.05;3.90;;;24.30;99.90;;;;;;2076934;28;20029;-71
2022/06/19 00:12:41;;;;;;;7.55;3.47;;;24.30;99.90;;;;;;2081983;28;20029;-71
2022/06/19 00:13:42;;;;;;;6.70;3.30;;;24.30;99.90;;;;;;2078055;28;20040;-71
2022/06/19 00:14:43;;;;;;;5.30;3.10;;;24.30;99.90;;;;;;2079572;28;20030;-71
2022/06/19 00:15:44;;;;;;;6.68;3.60;;;24.20;99.90;;;;;;2078135;28;20086;-71
2022/06/19 00:16:44;;;;;;;7.47;3.53;;;24.20;99.90;;;;;;2080335;28;20014;-71
2022/06/19 00:17:45;;;;;;;4.80;3.38;;;24.20;99.90;;;;;;2080977;28;20086;-71
2022/06/19 00:18:46;;;;;;;5.05;3.03;;;24.20;99.90;;;;;;2079831;28;20064;-71
2022/06/19 00:19:46;;;;;;;5.55;3.20;;;24.20;99.90;;;;;;2079198;28;20031;-71
2022/06/19 00:20:47;;;;;;;6.82;3.25;;;24.10;99.90;;;;;;2079302;28;20018;-71
2022/06/19 00:21:47;;;;;;;6.43;2.72;;;24.10;99.90;;;;;;2078579;28;20025;-72
2022/06/19 00:22:48;;;;;;;6.07;3.08;;;24.10;99.90;;;;;;2079442;28;20480;-71
2022/06/19 00:23:49;;;;;;;7.47;2.70;;;24.10;99.90;;;;;;2081550;28;20021;-71
2022/06/19 00:24:49;;;;;;;5.28;3.08;;;24.10;99.90;;;;;;2080834;28;20021;-71
2022/06/19 00:25:50;;;;;;;5.60;2.80;;;24.10;99.90;;;;;;2076802;28;20479;-72
2022/06/19 00:26:51;;;;;;;4.82;3.10;;;24.10;99.90;;;;;;2073035;28;20388;-72
2022/06/19 00:27:52;;;;;;;4.68;3.30;;;24.10;99.90;;;;;;2071353;28;20523;-72
2022/06/19 00:28:52;;;;;;;6.85;3.25;;;24.00;99.90;;;;;;2078874;28;20053;-71
2022/06/19 00:29:53;;;;;;;7.80;3.05;;;24.00;99.90;;;;;;2079717;28;20018;-71
2022/06/19 00:30:54;;;;;;;7.63;3.05;;;24.00;99.90;;;;;;2082516;28;20013;-71
2022/06/19 00:31:55;;;;;;;4.40;2.78;;;23.90;99.90;;;;;;2078989;28;20022;-71
2022/06/19 00:32:56;;;;;;;5.90;2.22;;;23.90;99.90;;;;;;2079724;28;20029;-71
2022/06/19 00:33:56;;;;;;;5.50;3.00;;;23.90;99.90;;;;;;2080005;28;20021;-71
2022/06/19 00:34:57;;;;;;;3.58;2.55;;;23.90;99.90;;;;;;2070982;28;20115;-71
2022/06/19 00:35:57;;;;;;;3.13;2.55;;;23.90;99.90;;;;;;2062754;28;20105;-71
2022/06/19 00:37:01;;;;;;;2.78;2.55;;;23.80;99.90;;;;;;2071683;28;20017;-71
2022/06/19 00:38:02;;;;;;;3.67;2.72;;;23.90;99.90;;;;;;2078438;28;20036;-71
2022/06/19 00:39:03;;;;;;;4.55;3.08;;;23.80;99.90;;;;;;2080721;28;20029;-71
2022/06/19 00:40:06;;;;;;;4.50;2.65;;;23.90;99.90;;;;;;2078581;28;20035;-71
2022/06/19 00:41:07;;;;;;;3.78;2.55;;;23.80;99.90;;;;;;2075249;28;20491;-71
2022/06/19 00:42:10;;;;;;;3.80;2.92;;;23.80;99.90;;;;;;2083335;28;20384;-71
2022/06/19 00:43:11;;;;;;;5.15;2.88;;;23.80;99.90;;;;;;2077798;28;20018;-71
2022/06/19 00:44:13;;;;;;;5.82;3.03;;;23.80;99.90;;;;;;2070119;28;20029;-71
2022/06/19 00:45:35;;;;;;;5.28;3.08;;;23.80;99.90;;;;;;2070229;28;20079;-71
2022/06/19 00:46:41;;;;;;;3.47;2.90;;;23.70;99.90;;;;;;2078397;28;20017;-71
2022/06/19 00:47:42;;;;;;;4.57;2.45;;;23.60;99.90;;;;;;2078830;28;20072;-71
2022/06/19 00:48:42;;;;;;;4.55;2.45;;;23.60;99.90;;;;;;2078244;28;20467;-71
2022/06/19 00:49:49;;;;;;;6.43;2.90;;;23.60;99.90;;;;;;2077091;28;20025;-71
2022/06/19 00:50:52;;;;;;;2.75;2.55;;;23.50;99.90;;;;;;2079120;28;20025;-71
2022/06/19 00:52:09;;;;;;;7.40;2.63;;;23.50;99.90;;;;;;2076748;28;20018;-72
2022/06/19 00:53:33;;;;;;;3.10;2.22;;;23.50;99.90;;;;;;2077932;28;20044;-72
2022/06/19 00:54:46;;;;;;;6.28;2.65;;;23.40;99.90;;;;;;2079696;28;20515;-72
2022/06/19 00:55:49;;;;;;;4.88;2.42;;;23.40;99.90;;;;;;2077359;28;20026;-71
2022/06/19 00:56:49;;;;;;;4.90;2.22;;;23.30;99.90;;;;;;2076380;28;20014;-71
2022/06/19 00:58:04;;;;;;;5.15;2.65;;;23.30;99.90;;;;;;2079348;28;20036;-71
2022/06/19 00:59:07;;;;;;;2.67;2.30;;;23.30;99.90;;;;;;2080219;28;20091;-71
2022/06/19 01:00:37;;;;;;;7.38;3.00;;;23.20;99.90;;;;;;2079630;28;20041;-71
2022/06/19 01:01:39;;;;;;;3.83;2.42;;;23.20;99.90;;;;;;2062324;28;20065;-71
2022/06/19 01:02:41;;;;;;;4.22;2.42;;;23.20;99.90;;;;;;2079836;28;20037;-71
2022/06/19 01:03:56;;;;;;;6.43;2.38;;;23.20;99.90;;;;;;2076864;28;20028;-71
2022/06/19 01:04:57;;;;;;;5.60;2.53;;;23.20;99.90;;;;;;2077383;28;20029;-71
2022/06/19 01:05:58;;;;;;;4.78;2.50;;;23.10;99.90;;;;;;2079763;28;20021;-71
2022/06/19 01:06:59;;;;;;;3.65;2.50;;;23.10;99.90;;;;;;2078912;28;20025;-71
2022/06/19 01:08:00;;;;;;;3.42;2.17;;;23.10;99.90;;;;;;2079140;28;20044;-71
2022/06/19 01:09:01;;;;;;;7.22;2.90;;;23.10;99.90;;;;;;2081591;28;20027;-71
2022/06/19 01:10:02;;;;;;;3.72;2.60;;;23.10;99.90;;;;;;2079092;28;20032;-71
2022/06/19 01:11:04;;;;;;;5.43;2.55;;;23.10;99.90;;;;;;2077422;28;20075;-71
2022/06/19 01:12:08;;;;;;;7.07;2.55;;;23.10;99.90;;;;;;2070124;28;20073;-71
2022/06/19 01:13:09;;;;;;;5.78;2.35;;;23.10;99.90;;;;;;2071492;28;20882;-71
2022/06/19 01:14:14;;;;;;;4.30;2.38;;;23.10;99.90;;;;;;2078444;28;20079;-72
2022/06/19 01:15:21;;;;;;;7.28;2.55;;;23.00;99.90;;;;;;2069869;28;20037;-71
2022/06/19 01:16:22;;;;;;;3.55;2.20;;;23.00;99.90;;;;;;2073203;28;20022;-71
2022/06/19 01:17:23;;;;;;;2.95;2.25;;;22.90;99.90;;;;;;2080754;28;20026;-71
2022/06/19 01:18:24;;;;;;;6.03;2.67;;;22.90;99.90;;;;;;2078968;28;20034;-71
2022/06/19 01:19:31;;;;;;;3.17;2.40;;;22.90;99.90;;;;;;2079341;28;20120;-71
2022/06/19 01:20:34;;;;;;;3.40;2.00;;;22.90;99.90;;;;;;2079716;28;20040;-71
2022/06/19 01:21:45;;;;;;;2.80;2.25;;;22.80;99.90;;;;;;2078326;28;20087;-71
2022/06/19 01:23:04;;;;;;;4.85;2.40;;;22.80;99.90;;;;;;2081489;28;20028;-71
2022/06/19 01:24:33;;;;;;;4.90;2.33;;;22.80;99.90;;;;;;2081044;28;20033;-71
2022/06/19 01:25:37;;;;;;;4.50;2.40;;;22.70;99.90;;;;;;2076973;28;20036;-71
2022/06/19 01:26:43;;;;;;;4.97;2.55;;;22.60;99.90;;;;;;2076596;28;20026;-71
2022/06/19 01:29:16;;;;;;;4.00;2.45;;;22.60;99.90;;;;;;2078678;28;20030;-71
2022/06/19 01:30:18;;;;;;;4.50;2.63;;;22.50;99.90;;;;;;2079091;28;20021;-71
2022/06/19 01:31:23;;;;;;;3.58;2.13;;;22.60;99.90;;;;;;2070354;28;20057;-71
2022/06/19 01:32:24;;;;;;;2.42;1.98;;;22.50;99.90;;;;;;2070604;28;20057;-71
2022/06/19 01:33:32;;;;;;;4.65;2.60;;;22.50;99.90;;;;;;2080499;28;20112;-71
2022/06/19 01:34:39;;;;;;;8.35;2.30;;;22.50;99.90;;;;;;2080298;28;20036;-71
2022/06/19 01:35:41;;;;;;;3.05;2.08;;;22.50;99.90;;;;;;2079808;28;20103;-71
2022/06/19 01:36:41;;;;;;;2.80;1.95;;;22.50;99.90;;;;;;2079631;28;20017;-71
2022/06/19 01:37:43;;;;;;;5.22;2.70;;;22.50;99.90;;;;;;2079979;28;20040;-71
2022/06/19 01:38:48;;;;;;;5.35;2.75;;;22.40;99.90;;;;;;2078539;28;20033;-71
2022/06/19 01:40:13;;;;;;;5.70;2.58;;;22.50;99.90;;;;;;2080094;28;20554;-71
2022/06/19 01:41:19;;;;;;;2.45;2.10;;;22.40;99.90;;;;;;2084336;28;20117;-71
2022/06/19 01:42:20;;;;;;;5.05;2.75;;;22.40;99.90;;;;;;2084394;28;20036;-71
2022/06/19 01:43:21;;;;;;;6.47;2.55;;;22.40;99.90;;;;;;2078636;28;20021;-71
2022/06/19 01:44:22;;;;;;;2.97;2.17;;;22.40;99.90;;;;;;2079300;28;20029;-71
2022/06/19 01:45:23;;;;;;;5.47;2.53;;;22.40;99.90;;;;;;2076223;28;20233;-71
2022/06/19 01:46:27;;;;;;;4.18;2.17;;;22.40;99.90;;;;;;2079584;28;20037;-71
2022/06/19 01:47:30;;;;;;;2.30;2.10;;;22.30;99.90;;;;;;2078441;28;20026;-71
2022/06/19 01:48:33;;;;;;;2.80;2.05;;;22.30;99.90;;;;;;2079893;28;20017;-71
2022/06/19 01:49:35;;;;;;;5.13;2.67;;;22.30;99.90;;;;;;2080903;28;20028;-71
2022/06/19 01:50:36;;;;;;;4.50;2.47;;;22.30;99.90;;;;;;2078637;28;20029;-71
2022/06/19 01:51:37;;;;;;;5.43;2.60;;;22.30;99.90;;;;;;2077935;28;20018;-71
2022/06/19 01:52:38;;;;;;;2.10;2.00;;;22.30;99.90;;;;;;2079830;28;20084;-71
2022/06/19 01:53:56;;;;;;;3.30;2.40;;;22.30;99.90;;;;;;2081353;28;20026;-71
2022/06/19 01:55:08;;;;;;;3.90;2.15;;;22.30;99.90;;;;;;2073064;28;20033;-71
2022/06/19 01:56:11;;;;;;;2.60;2.20;;;22.30;99.90;;;;;;2075848;28;20022;-71
2022/06/19 01:57:13;;;;;;;5.28;2.53;;;22.20;99.90;;;;;;2079644;28;20060;-71
2022/06/19 01:58:14;;;;;;;2.83;2.45;;;22.20;99.90;;;;;;2078328;28;20439;-71
2022/06/19 01:59:15;;;;;;;3.15;2.35;;;22.20;99.90;;;;;;2078460;28;20146;-71
2022/06/19 02:00:20;;;;;;;5.97;2.30;;;22.20;99.90;;;;;;2078212;28;20033;-71
2022/06/19 02:01:21;;;;;;;3.70;2.33;;;22.20;99.90;;;;;;2070452;28;20037;-71
2022/06/19 02:02:23;;;;;;;4.72;2.55;;;22.10;99.90;;;;;;2070106;28;20052;-71
2022/06/19 02:03:34;;;;;;;3.78;2.70;;;22.20;99.90;;;;;;2077180;28;20028;-71
2022/06/19 02:04:35;;;;;;;4.28;2.33;;;22.20;99.90;;;;;;2077838;28;20028;-71
2022/06/19 02:05:38;;;;;;;2.97;2.00;;;22.10;99.90;;;;;;2080037;28;20049;-71
2022/06/19 02:06:46;;;;;;;4.57;2.00;;;22.10;99.90;;;;;;2077330;28;20056;-71
2022/06/19 02:07:47;;;;;;;2.47;2.20;;;22.10;99.90;;;;;;2078360;28;20022;-71
2022/06/19 02:08:48;;;;;;;2.78;2.30;;;22.00;99.90;;;;;;2078945;28;20097;-71
2022/06/19 02:09:51;;;;;;;3.08;2.30;;;22.10;99.90;;;;;;2078399;28;20595;-71
2022/06/19 02:11:02;;;;;;;4.55;2.20;;;22.00;99.90;;;;;;2078333;28;20018;-71
2022/06/19 02:12:05;;;;;;;6.57;2.35;;;22.00;99.90;;;;;;2079791;28;20087;-71
2022/06/19 02:13:08;;;;;;;4.20;2.00;;;22.00;99.90;;;;;;2078269;28;20025;-71
2022/06/19 02:14:11;;;;;;;6.03;2.67;;;22.00;99.90;;;;;;2077606;28;20029;-71
2022/06/19 02:15:13;;;;;;;2.15;1.95;;;22.00;99.90;;;;;;2077805;28;20387;-71
2022/06/19 02:16:17;;;;;;;4.50;2.35;;;22.00;99.90;;;;;;2078821;28;20396;-71
2022/06/19 02:17:25;;;;;;;4.10;2.38;;;22.00;99.90;;;;;;2079792;28;20057;-71
2022/06/19 02:18:31;;;;;;;5.07;2.35;;;22.00;99.90;;;;;;2077771;28;20087;-71
2022/06/19 02:19:31;;;;;;;2.95;1.80;;;21.90;99.90;;;;;;2080057;28;20559;-71
2022/06/19 02:20:32;;;;;;;4.68;2.25;;;21.90;99.90;;;;;;2081092;28;20029;-71
2022/06/19 02:21:35;;;;;;;2.90;2.10;;;21.90;99.90;;;;;;2081895;28;20030;-71
2022/06/19 02:22:36;;;;;;;2.47;1.98;;;22.00;99.90;;;;;;2082503;28;20056;-71
2022/06/19 02:23:38;;;;;;;5.03;2.78;;;21.90;99.90;;;;;;2079673;28;20013;-71
2022/06/19 02:24:39;;;;;;;5.68;2.20;;;21.90;99.90;;;;;;2081876;28;20017;-71
2022/06/19 02:25:44;;;;;;;3.45;2.08;;;21.90;99.90;;;;;;2081668;28;20388;-71
2022/06/19 02:26:47;;;;;;;3.53;2.17;;;21.90;99.90;;;;;;2073177;28;20025;-71
2022/06/19 02:27:49;;;;;;;4.70;2.00;;;21.90;99.90;;;;;;2069859;28;20021;-71
2022/06/19 02:28:50;;;;;;;4.10;1.85;;;21.90;99.90;;;;;;2080757;28;20044;-71
2022/06/19 02:29:51;;;;;;;3.22;2.00;;;21.90;99.90;;;;;;2080661;28;20028;-71
2022/06/19 02:30:52;;;;;;;2.45;2.25;;;21.80;99.90;;;;;;2077623;28;20080;-71
2022/06/19 02:31:54;;;;;;;3.35;1.92;;;21.90;99.90;;;;;;2077340;28;20033;-71
2022/06/19 02:32:55;;;;;;;4.25;2.38;;;21.80;99.90;;;;;;2079054;28;20052;-71
2022/06/19 02:34:01;;;;;;;2.92;2.00;;;21.80;99.90;;;;;;2070951;28;20030;-71
2022/06/19 02:35:02;;;;;;;5.00;2.13;;;21.80;99.90;;;;;;2071362;28;20022;-71
2022/06/19 02:36:31;;;;;;;4.72;2.17;;;21.70;99.90;;;;;;2071660;28;20443;-71
2022/06/19 02:37:38;;;;;;;2.40;1.88;;;21.70;99.90;;;;;;2079814;28;20021;-71
2022/06/19 02:38:39;;;;;;;3.58;2.10;;;21.70;99.90;;;;;;2076520;28;20030;-71
2022/06/19 02:39:53;;;;;;;3.03;2.00;;;21.70;99.90;;;;;;2078270;28;20376;-71
2022/06/19 02:41:10;;;;;;;5.53;3.00;;;21.70;99.90;;;;;;2080020;28;20017;-71
2022/06/19 02:42:20;;;;;;;2.92;2.10;;;21.60;99.90;;;;;;2076775;28;20026;-71
2022/06/19 02:43:30;;;;;;;5.30;2.33;;;21.60;99.90;;;;;;2078799;28;20025;-71
2022/06/19 02:44:37;;;;;;;4.18;2.38;;;21.50;99.90;;;;;;2082067;28;20049;-71
2022/06/19 02:45:39;;;;;;;4.88;2.42;;;21.50;99.90;;;;;;2078460;28;20017;-71
2022/06/19 02:46:40;;;;;;;6.55;2.60;;;21.50;99.90;;;;;;2076957;28;20030;-71
2022/06/19 02:47:42;;;;;;;3.47;2.00;;;21.50;99.90;;;;;;2078123;28;20030;-71
2022/06/19 02:48:43;;;;;;;4.78;2.72;;;21.50;99.90;;;;;;2080914;28;20022;-71
2022/06/19 02:49:43;;;;;;;6.05;2.53;;;21.50;99.90;;;;;;2077304;28;20106;-71
2022/06/19 02:50:44;;;;;;;3.92;2.60;;;21.50;99.90;;;;;;2082387;28;20020;-71
2022/06/19 02:51:45;;;;;;;7.10;2.75;;;21.50;99.90;;;;;;2079158;28;20075;-71
2022/06/19 02:52:47;;;;;;;5.18;2.25;;;21.40;99.90;;;;;;2080258;28;20021;-71
2022/06/19 02:53:47;;;;;;;3.28;2.10;;;21.40;99.90;;;;;;2077106;28;20043;-71
2022/06/19 02:54:49;;;;;;;2.92;2.45;;;21.40;99.90;;;;;;2080280;28;20024;-71
2022/06/19 02:55:50;;;;;;;3.03;2.42;;;21.40;99.90;;;;;;2081078;28;20024;-71
2022/06/19 02:56:50;;;;;;;2.17;1.70;;;21.40;99.90;;;;;;2078493;28;20075;-71
2022/06/19 02:57:52;;;;;;;5.30;2.33;;;21.40;99.90;;;;;;2079191;28;20139;-71
2022/06/19 02:58:52;;;;;;;9.07;2.95;;;21.40;99.90;;;;;;2079404;28;20535;-71
2022/06/19 02:59:53;;;;;;;5.25;2.55;;;21.40;99.90;;;;;;2081579;28;20447;-71
2022/06/19 03:00:54;;;;;;;3.13;2.47;;;21.40;99.90;;;;;;2079105;28;20041;-71
2022/06/19 03:01:55;;;;;;;5.35;2.38;;;21.40;99.90;;;;;;2077636;28;20031;-71
2022/06/19 03:03:03;;;;;;;2.72;2.03;;;21.40;99.90;;;;;;2080195;28;20076;-71
2022/06/19 03:04:03;;;;;;;2.95;1.75;;;21.40;99.90;;;;;;2080814;28;20114;-71
2022/06/19 03:05:06;;;;;;;4.03;2.22;;;21.40;99.90;;;;;;2083384;28;20018;-71
2022/06/19 03:06:07;;;;;;;3.65;1.98;;;21.30;99.90;;;;;;2080038;28;20032;-71
2022/06/19 03:07:08;;;;;;;3.00;2.10;;;21.30;99.90;;;;;;2081906;28;20021;-71
2022/06/19 03:08:08;;;;;;;2.70;1.88;;;21.30;99.90;;;;;;2078211;28;20488;-71
2022/06/19 03:09:09;;;;;;;3.70;2.35;;;21.30;99.90;;;;;;2078790;28;20404;-71
2022/06/19 03:10:10;;;;;;;5.03;2.20;;;21.30;99.90;;;;;;2080828;28;20053;-71
2022/06/19 03:11:11;;;;;;;4.97;1.73;;;21.20;99.90;;;;;;2079814;28;20021;-71
2022/06/19 03:12:12;;;;;;;4.03;2.28;;;21.20;99.90;;;;;;2078892;28;20102;-71
2022/06/19 03:13:12;;;;;;;4.93;2.38;;;21.10;99.90;;;;;;2080222;28;20017;-71
2022/06/19 03:14:13;;;;;;;4.78;2.22;;;21.10;99.90;;;;;;2078039;28;21200;-71
2022/06/19 03:15:15;;;;;;;8.63;2.13;;;21.00;99.90;;;;;;2080462;28;20030;-71
2022/06/19 03:16:17;;;;;;;4.93;1.88;;;21.00;99.90;;;;;;2079901;28;20059;-71
2022/06/19 03:17:20;;;;;;;3.80;2.33;;;20.90;99.90;;;;;;2079544;28;20025;-71
2022/06/19 03:18:21;;;;;;;3.60;2.33;;;20.90;99.90;;;;;;2080215;28;20024;-71
2022/06/19 03:19:21;;;;;;;2.95;1.80;;;20.90;99.90;;;;;;2079835;28;20028;-71
2022/06/19 03:20:24;;;;;;;3.13;1.80;;;20.90;99.90;;;;;;2079176;28;20026;-71
2022/06/19 03:21:25;;;;;;;5.90;2.17;;;20.80;99.90;;;;;;2080709;28;20029;-71
2022/06/19 03:22:26;;;;;;;4.63;1.90;;;20.80;99.90;;;;;;2079939;28;20566;-71
2022/06/19 03:23:27;;;;;;;5.30;2.15;;;20.80;99.90;;;;;;2079851;28;20517;-71
2022/06/19 03:24:27;;;;;;;4.88;1.80;;;20.70;99.90;;;;;;2081862;28;20582;-71
2022/06/19 03:25:28;;;;;;;5.15;2.20;;;20.70;99.90;;;;;;2079110;28;20032;-71
2022/06/19 03:26:30;;;;;;;5.07;2.03;;;20.70;99.90;;;;;;2079452;28;20060;-71
2022/06/19 03:27:31;;;;;;;5.30;2.08;;;20.60;99.90;;;;;;2078758;28;20017;-71
2022/06/19 03:28:32;;;;;;;4.60;2.08;;;20.60;99.90;;;;;;2080660;28;20054;-71
2022/06/19 03:29:33;;;;;;;7.03;2.38;;;20.60;99.90;;;;;;2081512;28;20025;-71
2022/06/19 03:30:33;;;;;;;4.00;2.25;;;20.60;99.90;;;;;;2077745;28;20674;-71
2022/06/19 03:31:34;;;;;;;4.05;2.00;;;20.60;99.90;;;;;;2079177;28;20025;-71
2022/06/19 03:32:35;;;;;;;5.13;1.80;;;20.60;99.90;;;;;;2039504;28;1129833;-71
2022/06/19 03:33:35;;;;;;;3.92;1.98;;;20.50;99.90;;;;;;2079615;28;20021;-71
2022/06/19 03:34:36;;;;;;;4.05;2.03;;;20.50;99.90;;;;;;2080221;28;20389;-71
2022/06/19 03:35:37;;;;;;;5.55;1.95;;;20.40;99.90;;;;;;2081824;28;20017;-71
2022/06/19 03:36:37;;;;;;;3.50;2.22;;;20.40;99.90;;;;;;2080690;28;20014;-71
2022/06/19 03:37:39;;;;;;;3.03;1.80;;;20.40;99.90;;;;;;2079048;28;20014;-71
2022/06/19 03:38:40;;;;;;;4.65;2.08;;;20.40;99.90;;;;;;2078567;28;20026;-71
2022/06/19 03:39:41;;;;;;;3.75;2.00;;;20.40;99.90;;;;;;2082946;28;20049;-71
2022/06/19 03:40:41;;;;;;;4.32;2.20;;;20.40;99.90;;;;;;2080834;28;20658;-71
2022/06/19 03:41:42;;;;;;;6.32;2.13;;;20.40;99.90;;;;;;2081121;28;20039;-71
2022/06/19 03:42:42;;;;;;;3.08;1.70;;;20.40;99.90;;;;;;2080088;28;20039;-71
2022/06/19 03:43:43;;;;;;;5.85;2.05;;;20.40;99.90;;;;;;2080615;28;20021;-71
2022/06/19 03:44:44;;;;;;;6.95;2.33;;;20.40;99.90;;;;;;2080700;28;20017;-71
2022/06/19 03:45:45;;;;;;;5.22;2.33;;;20.40;99.90;;;;;;2077653;28;20017;-71
2022/06/19 03:46:45;;;;;;;4.43;2.08;;;20.30;99.90;;;;;;2079691;28;20037;-71
2022/06/19 03:47:46;;;;;;;4.78;1.90;;;20.30;99.90;;;;;;2080724;28;20032;-71
2022/06/19 03:48:50;;;;;;;4.82;2.28;;;20.30;99.90;;;;;;2080861;28;20048;-71
2022/06/19 03:49:51;;;;;;;3.88;1.92;;;20.30;99.90;;;;;;2079875;28;20465;-71
2022/06/19 03:50:52;;;;;;;6.57;2.05;;;20.30;99.90;;;;;;2081326;28;20021;-71
2022/06/19 03:51:53;;;;;;;5.97;2.05;;;20.40;99.90;;;;;;2079084;28;20026;-71
2022/06/19 03:52:53;;;;;;;3.58;1.88;;;20.30;99.90;;;;;;2080692;28;20544;-71
2022/06/19 03:53:55;;;;;;;3.67;1.95;;;20.30;99.90;;;;;;2079941;28;20057;-71
2022/06/19 03:54:56;;;;;;;4.85;2.15;;;20.30;99.90;;;;;;2078788;28;20029;-71
2022/06/19 03:55:56;;;;;;;3.28;1.50;;;20.40;99.90;;;;;;2080980;28;20503;-71
2022/06/19 03:56:57;;;;;;;3.85;2.08;;;20.40;99.90;;;;;;2079236;28;20431;-71
2022/06/19 03:57:57;;;;;;;4.38;2.17;;;20.40;99.90;;;;;;2079486;28;20033;-71
2022/06/19 03:58:58;;;;;;;3.50;1.95;;;20.40;99.90;;;;;;2078161;28;20028;-71
2022/06/19 03:59:59;;;;;;;5.93;2.05;;;20.40;99.90;;;;;;2080574;28;20083;-71
2022/06/19 04:01:00;;;;;;;4.93;2.47;;;20.40;99.90;;;;;;2081880;28;20021;-71
2022/06/19 04:02:02;;;;;;;7.10;2.30;;;20.40;99.90;;;;;;2081640;28;20404;-71
2022/06/19 04:03:03;;;;;;;6.15;2.20;;;20.40;99.90;;;;;;2079090;28;20369;-71
2022/06/19 04:04:04;;;;;;;8.38;2.35;;;20.40;99.90;;;;;;2080345;28;20025;-71
2022/06/19 04:05:05;;;;;;;8.20;2.17;;;20.40;99.90;;;;;;2079658;28;20045;-71
2022/06/19 04:06:06;;;;;;;5.35;2.38;;;20.40;99.90;;;;;;2078255;28;20426;-71
2022/06/19 04:07:11;;;;;;;3.88;2.13;;;20.50;99.90;;;;;;2079131;28;20021;-71
2022/06/19 04:08:11;;;;;;;9.60;2.72;;;20.50;99.90;;;;;;2078207;28;20025;-71
2022/06/19 04:09:16;;;;;;;10.32;2.90;;;20.50;99.90;;;;;;2081702;28;20022;-71
2022/06/19 04:10:19;;;;;;;8.25;2.80;;;20.60;99.90;;;;;;2078585;28;20013;-71
2022/06/19 04:11:22;;;;;;;4.53;2.00;;;20.60;99.90;;;;;;2079126;28;20028;-71
2022/06/19 04:12:22;;;;;;;7.47;2.67;;;20.60;99.90;;;;;;2079205;28;20136;-71
2022/06/19 04:13:23;;;;;;;7.95;2.78;;;20.70;99.90;;;;;;2083458;28;20034;-71
2022/06/19 04:14:23;;;;;;;7.70;2.60;;;20.70;99.90;;;;;;2079553;28;20029;-71
2022/06/19 04:15:24;;;;;;;11.82;3.20;;;20.80;99.90;;;;;;2081189;28;20032;-71
2022/06/19 04:16:28;;;;;;;8.20;2.83;;;20.90;99.90;;;;;;2079524;28;20032;-71
2022/06/19 04:17:29;;;;;;;9.88;3.65;;;20.90;99.90;;;;;;2082290;28;20391;-71
2022/06/19 04:18:30;;;;;;;8.85;2.55;;;21.00;99.50;;;;;;2082564;28;20540;-71
2022/06/19 04:19:31;;;;;;;11.80;2.72;;;21.10;99.10;;;;;;2079796;28;20096;-71
2022/06/19 04:20:32;;;;;;;5.40;2.22;;;21.10;98.10;;;;;;2082156;28;20024;-71
2022/06/19 04:21:38;;;;;;;13.05;2.85;;;21.10;97.30;;;;;;2078691;28;20120;-70
2022/06/19 04:22:39;;;;;;;9.35;2.88;;;21.10;97.00;;;;;;2078884;28;20025;-71
2022/06/19 04:23:41;;;;;;;10.50;2.78;;;21.10;96.80;;;;;;2079901;28;20025;-71
2022/06/19 04:24:41;;;;;;;10.18;3.05;;;21.10;96.70;;;;;;2072766;28;20018;-71
2022/06/19 04:25:43;;;;;;;8.02;2.55;;;21.10;96.30;;;;;;2068640;28;20092;-71
2022/06/19 04:26:44;;;;;;;10.75;3.20;;;21.20;96.10;;;;;;2078131;28;20021;-71
2022/06/19 04:27:44;;;;;;;7.50;2.95;;;21.20;96.20;;;;;;2080546;28;20040;-71
2022/06/19 04:28:45;;;;;;;9.70;3.28;;;21.20;95.50;;;;;;2080881;28;20032;-71
2022/06/19 04:29:45;;;;;;;12.07;4.05;;;21.10;95.00;;;;;;2077427;28;20013;-71
2022/06/19 04:30:46;;;;;;;9.02;3.28;;;21.10;94.40;;;;;;2078192;28;20013;-71
2022/06/19 04:31:47;;;;;;;13.10;3.22;;;21.00;94.50;;;;;;2082292;28;20017;-70
2022/06/19 04:32:48;;;;;;;7.57;3.08;;;20.90;94.20;;;;;;2078343;28;20647;-71
2022/06/19 04:33:48;;;;;;;9.88;3.42;;;20.90;94.00;;;;;;2077196;28;20407;-71
2022/06/19 04:34:49;;;;;;;7.80;2.85;;;20.80;94.30;;;;;;2082645;28;20032;-71
2022/06/19 04:35:49;;;;;;;11.38;3.60;;;20.80;94.50;;;;;;2076020;28;20124;-71
2022/06/19 04:36:50;;;;;;;10.32;2.63;;;20.70;95.10;;;;;;2077307;28;20492;-70
2022/06/19 04:37:51;;;;;;;12.73;3.42;;;20.70;94.60;;;;;;2077553;28;20036;-71
2022/06/19 04:38:54;;;;;;;8.82;3.42;;;20.60;94.50;;;;;;2080867;28;20392;-71
2022/06/19 04:39:55;;;;;;;8.75;3.25;;;20.70;93.90;;;;;;2078405;28;20025;-70
2022/06/19 04:40:56;;;;;;;14.32;3.22;;;20.60;94.20;;;;;;2078802;28;20480;-71
2022/06/19 04:41:57;;;;;;;8.98;2.72;;;20.60;93.50;;;;;;2076531;28;20029;-71
2022/06/19 04:42:58;;;;;;;10.73;3.38;;;20.60;92.80;;;;;;2081860;28;20080;-71
2022/06/19 04:43:59;;;;;;;11.40;3.72;;;20.50;92.80;;;;;;2080555;28;20075;-71
2022/06/19 04:45:00;;;;;;;10.65;3.30;;;20.50;92.70;;;;;;2077377;28;20067;-71
2022/06/19 04:46:02;;;;;;;9.43;3.22;;;20.50;93.10;;;;;;2077020;28;20095;-71
2022/06/19 04:47:03;;;;;;;13.68;3.72;;;20.50;92.70;;;;;;2078355;28;20018;-70
2022/06/19 04:48:06;;;;;;;14.23;2.95;;;20.50;92.30;;;;;;2079819;28;20033;-71
2022/06/19 04:49:06;;;;;;;9.77;3.13;;;20.50;91.50;;;;;;2080405;28;20439;-70
2022/06/19 04:50:08;;;;;;;10.98;3.67;;;20.50;91.00;;;;;;2079701;28;20033;-71
2022/06/19 04:51:09;;;;;;;10.88;3.42;;;20.40;90.90;;;;;;2078466;28;20049;-71
2022/06/19 04:52:09;;;;;;;11.93;3.60;;;20.40;90.80;;;;;;2078197;28;20721;-71
2022/06/19 04:53:10;;;;;;;11.40;3.33;;;20.40;90.90;;;;;;2078876;28;20025;-70
2022/06/19 04:54:11;;;;;;;15.13;3.40;;;20.40;90.50;;;;;;2078624;28;20021;-70
2022/06/19 04:55:12;;;;;;;13.70;4.13;;;20.40;90.30;;;;;;2078881;28;20026;-71
2022/06/19 04:56:15;;;;;;;12.40;3.38;;;20.30;90.10;;;;;;2082292;28;20021;-71
2022/06/19 04:57:16;;;;;;;12.65;3.80;;;20.40;90.20;;;;;;2079017;28;20036;-71
2022/06/19 04:58:16;;;;;;;11.90;3.70;;;20.40;90.00;;;;;;2079538;28;20029;-71
2022/06/19 04:59:17;;;;;;;11.88;3.40;;;20.30;90.10;;;;;;2078872;28;20384;-71
2022/06/19 05:00:19;;;;;;;9.45;3.30;;;20.30;89.90;;;;;;2076637;28;20028;-71
2022/06/19 05:01:25;;;;;;;12.65;3.72;;;20.40;89.60;;;;;;2079457;28;20064;-71
2022/06/19 05:02:25;;;;;;;11.75;3.38;;;20.40;88.50;;;;;;2077602;28;20033;-71
2022/06/19 05:03:26;;;;;;;14.38;3.50;;;20.40;88.70;;;;;;2077960;28;20042;-70
2022/06/19 05:04:27;;;;;;;15.13;3.45;;;20.40;89.10;;;;;;2080830;28;20060;-70
2022/06/19 05:05:27;;;;;;;19.02;3.63;;;20.40;87.60;;;;;;2080332;28;20032;-70
2022/06/19 05:06:29;;;;;;;12.10;3.80;;;20.40;87.40;;;;;;2079662;28;21816;-71
2022/06/19 05:07:30;;;;;;;13.88;3.38;;;20.40;87.30;;;;;;2078935;28;20032;-71
2022/06/19 05:08:30;;;;;;;14.32;3.47;;;20.40;87.70;;;;;;2079999;28;20014;-71
2022/06/19 05:09:31;;;;;;;11.02;3.60;;;20.40;87.70;;;;;;2079725;28;20032;-71
2022/06/19 05:10:32;;;;;;;13.00;3.30;;;20.40;86.50;;;;;;2080494;28;20076;-71
2022/06/19 05:11:33;;;;;;;13.77;4.28;;;20.40;86.90;;;;;;2070572;28;20072;-71
2022/06/19 05:12:34;;;;;;;12.38;4.20;;;20.40;86.80;;;;;;2071233;28;20030;-71
2022/06/19 05:13:34;;;;;;;8.77;3.20;;;20.40;86.90;;;;;;2079557;28;20119;-71
2022/06/19 05:14:38;;;;;;;15.23;3.72;;;20.40;87.00;;;;;;2081375;28;20029;-71
2022/06/19 05:15:39;;;;;;;15.55;3.80;;;20.50;86.00;;;;;;2077693;28;20025;-71
2022/06/19 05:16:40;;;;;;;12.98;4.60;;;20.50;86.20;;;;;;2080378;28;20021;-71
2022/06/19 05:17:40;;;;;;;9.98;3.40;;;20.50;83.90;;;;;;2078115;28;20026;-71
2022/06/19 05:18:42;;;;;;;10.90;3.58;;;20.40;82.00;;;;;;2079624;28;20031;-71
2022/06/19 05:19:43;;;;;;;15.63;4.00;;;20.40;82.70;;;;;;2080105;28;20029;-71
2022/06/19 05:20:44;;;;;;;13.40;4.18;;;20.50;82.50;;;;;;2081478;28;20384;-71
2022/06/19 05:21:45;;;;;;;11.65;3.70;;;20.50;81.40;;;;;;2078824;28;20083;-71
2022/06/19 05:22:45;;;;;;;10.80;3.45;;;20.50;80.60;;;;;;2079926;28;20021;-70
2022/06/19 05:23:47;;;;;;;11.75;3.53;;;20.40;80.30;;;;;;2080459;28;20141;-71
2022/06/19 05:24:48;;;;;;;11.35;3.85;;;20.40;79.90;;;;;;2081001;28;20476;-71
2022/06/19 05:25:48;;;;;;;11.07;3.53;;;20.40;79.70;;;;;;2076879;28;20425;-71
2022/06/19 05:26:50;;;;;;;10.35;3.45;;;20.40;80.00;;;;;;2081809;28;20017;-71